Hlavní strana
METAR-TAF:

METAR-TAF

Letiště :

Cerklje ob Krki, Slovinsko

zeměpisná šířka: 45-53-59N, zeměpisná délka: 15-30-55E, výška: 157 m

Aktuální stav počasí

Zpráva byla vytvořena před 20 minutami, v 06:00 UTC
Západojihozápadní vítr 5 kt
Teplota 24°C
Vlhkost vzduchu 54%
Tlak 1016 hPa
Viditelnost 10 km a více
Žádná oblačnost pod 1500 m, nevyskytují se cumulonimby.

METAR: LJCE 190600Z 25005KT CAVOK 24/14 Q1016 RMK BLU

Čas: 08:20 (06:20 UTC)

Předpověď počasí

Zpráva byla vytvořena před 1 hodinou a 20 minutami, v 05:00 UTC
Předpověď platná od 19 v 06 UTC do 19 v 15 UTC
Západní vítr 5 kt
Viditelnost 10 km a více
Žádná oblačnost pod 1500 m, nevyskytují se cumulonimby.
Změna
od 19 v 12 UTC do 19 v 14 UTC
Západní vítr 15 kt s nárazy do 25 kt

TAF: LJCE 190500Z 1906/1915 27005KT CAVOK BECMG 1912/1914 27015G25KT

Stav a předpovědi počasí z více než 4 000 letišť (zprávy METAR a TAF).

Červené a žluté tečky na mapě představují dostupné meteorologické stanice.

Když kurzor umístíte na tečku, zobrazí se název stanice.

Pak kliknutím zobrazíte stav a předpověď počasí.

Chcete-li změnit mapu, kliknutím na zelené tlačítko se znaménkem +mapu přiblížíte, kliknutím na zelené tlačítko se znaménkem – mapu oddálíte a kliknutím na zelené šipky přejdete na sousední mapy.


METAR-TAF: